• Join FlightAware (Why Join?)
  • Login
  • US Flag 
11:49PM EDT


 

Airport Tracker/Info


-or-


 

Live Flight TrackerFlight Track Log ✈ CTL13 ✈ 24-Jun-2013 ✈ KEYE - KMDW

Flight Track Log - Related Links

Times and Time Zones

All times are in EDT time to prevent confusion due to time zone crossing. See the CTL13 flight status page for this flight to view local times or setup timezone preferences in your user account.

Time Position Orientation Groundspeed Altitude Reporting Facility
EDT Latitude Longitude Course Direction KTS MPH feet Rate Location/Type
08:29PM 39.9000 -86.2833 North 153 176 1,900  Level Indianapolis TRACON
08:30PM 39.9333 -86.3000 339° North 181 208 2,000 60 Climbing Indianapolis TRACON
08:31PM 39.9592 -86.3139 338° Northwest 168 193 2,000 240 Level Indianapolis Center
08:32PM 40.0086 -86.3269 349° North 176 203 2,400 420 Climbing Indianapolis Center
08:33PM 40.0661 -86.3394 351° North 176 203 2,900 240 Climbing Indianapolis Center
08:34PM 40.1114 -86.3536 347° North 172 198 2,900  Level Indianapolis Center
08:35PM 40.1581 -86.3664 348° North 172 198 3,000  Climbing Indianapolis Center
08:36PM 40.2028 -86.3753 351° North 168 193 2,900 -60 Descending Indianapolis Center
08:37PM 40.2678 -86.3953 347° North 162 186 2,900  Level Chicago Center
08:38PM 40.3014 -86.4053 347° North 164 189 3,000  Climbing Chicago Center
08:39PM 40.3439 -86.4217 344° North 162 186 3,000 -60 Level Chicago Center
08:40PM 40.3947 -86.4447 341° North 161 185 2,900 -60 Descending Chicago Center
08:41PM 40.4378 -86.4619 343° North 161 185 2,900 60 Level Chicago Center
08:42PM 40.4797 -86.4783 343° North 160 184 3,100  Climbing Chicago Center
08:43PM 40.5183 -86.5025 335° Northwest 157 181 2,900 -60 Descending Chicago Center
08:44PM 40.5550 -86.5322 328° Northwest 155 178 3,000  Climbing Chicago Center
08:45PM 40.5881 -86.5647 323° Northwest 153 176 3,000 -60 Level Chicago Center
08:46PM 40.6203 -86.6025 318° Northwest 153 176 2,900  Descending Chicago Center
08:47PM 40.6569 -86.6467 318° Northwest 152 175 3,000 120 Climbing Chicago Center
08:49PM 40.6961 -86.6756 331° Northwest 158 182 3,200 -60 Climbing Chicago Center
08:50PM 40.7347 -86.7053 330° Northwest 152 175 2,900 -120 Descending Chicago Center
08:50PM 40.7631 -86.7264 331° Northwest 138 159 3,000  Climbing Chicago Center
08:52PM 40.7936 -86.7503 329° Northwest 121 139 2,900  Descending Chicago Center
08:53PM 40.8256 -86.7764 328° Northwest 122 140 3,000  Climbing Chicago Center
08:54PM 40.8478 -86.8086 312° West 128 147 3,000  Level Chicago Center